sensor_id;sensor_type;location;lat;lon;timestamp;P1;durP1;ratioP1;P2;durP2;ratioP2
3779;SDS011;1905;52.482;9.802;2022-12-07T00:01:16;19.77;;;10.43;;
3779;SDS011;1905;52.482;9.802;2022-12-07T00:03:54;20.97;;;10.90;;
3779;SDS011;1905;52.482;9.802;2022-12-07T00:06:31;20.70;;;10.90;;
3779;SDS011;1905;52.482;9.802;2022-12-07T00:09:14;25.10;;;11.63;;
3779;SDS011;1905;52.482;9.802;2022-12-07T00:11:55;22.47;;;10.70;;
3779;SDS011;1905;52.482;9.802;2022-12-07T00:14:27;23.87;;;11.50;;
3779;SDS011;1905;52.482;9.802;2022-12-07T00:16:57;23.10;;;10.33;;
3779;SDS011;1905;52.482;9.802;2022-12-07T00:19:27;25.50;;;13.23;;
3779;SDS011;1905;52.482;9.802;2022-12-07T00:22:01;30.90;;;12.77;;
3779;SDS011;1905;52.482;9.802;2022-12-07T00:24:42;24.00;;;11.27;;
3779;SDS011;1905;52.482;9.802;2022-12-07T00:27:16;28.43;;;11.90;;
3779;SDS011;1905;52.482;9.802;2022-12-07T00:29:50;22.00;;;11.77;;
3779;SDS011;1905;52.482;9.802;2022-12-07T00:32:21;27.47;;;13.30;;
3779;SDS011;1905;52.482;9.802;2022-12-07T00:34:54;22.40;;;11.00;;
3779;SDS011;1905;52.482;9.802;2022-12-07T00:37:32;24.10;;;12.20;;
3779;SDS011;1905;52.482;9.802;2022-12-07T00:40:13;21.30;;;11.43;;
3779;SDS011;1905;52.482;9.802;2022-12-07T00:42:47;21.80;;;13.00;;
3779;SDS011;1905;52.482;9.802;2022-12-07T00:45:24;36.60;;;12.40;;
3779;SDS011;1905;52.482;9.802;2022-12-07T00:48:04;25.30;;;11.50;;
3779;SDS011;1905;52.482;9.802;2022-12-07T00:50:44;21.73;;;11.53;;
3779;SDS011;1905;52.482;9.802;2022-12-07T00:53:22;20.07;;;11.07;;
3779;SDS011;1905;52.482;9.802;2022-12-07T00:55:57;23.23;;;11.60;;
3779;SDS011;1905;52.482;9.802;2022-12-07T00:58:41;23.50;;;11.50;;
3779;SDS011;1905;52.482;9.802;2022-12-07T01:01:15;20.90;;;11.93;;
3779;SDS011;1905;52.482;9.802;2022-12-07T01:03:55;24.87;;;13.43;;
3779;SDS011;1905;52.482;9.802;2022-12-07T01:06:36;21.17;;;12.57;;
3779;SDS011;1905;52.482;9.802;2022-12-07T01:09:21;23.43;;;13.13;;
3779;SDS011;1905;52.482;9.802;2022-12-07T01:12:05;24.83;;;11.70;;
3779;SDS011;1905;52.482;9.802;2022-12-07T01:14:43;18.80;;;11.43;;
3779;SDS011;1905;52.482;9.802;2022-12-07T01:17:25;26.57;;;14.23;;
3779;SDS011;1905;52.482;9.802;2022-12-07T01:20:05;23.53;;;11.57;;
3779;SDS011;1905;52.482;9.802;2022-12-07T01:22:36;24.00;;;13.03;;
3779;SDS011;1905;52.482;9.802;2022-12-07T01:25:05;21.17;;;13.07;;
3779;SDS011;1905;52.482;9.802;2022-12-07T01:27:34;23.80;;;12.47;;
3779;SDS011;1905;52.482;9.802;2022-12-07T01:30:04;26.80;;;13.53;;
3779;SDS011;1905;52.482;9.802;2022-12-07T01:32:33;24.27;;;12.27;;
3779;SDS011;1905;52.482;9.802;2022-12-07T01:35:01;27.07;;;12.70;;
3779;SDS011;1905;52.482;9.802;2022-12-07T01:37:33;22.73;;;12.47;;
3779;SDS011;1905;52.482;9.802;2022-12-07T01:40:01;28.90;;;13.50;;
3779;SDS011;1905;52.482;9.802;2022-12-07T01:42:30;19.80;;;11.50;;
3779;SDS011;1905;52.482;9.802;2022-12-07T01:48:12;22.67;;;11.50;;
3779;SDS011;1905;52.482;9.802;2022-12-07T01:50:43;33.77;;;13.53;;
3779;SDS011;1905;52.482;9.802;2022-12-07T01:53:15;23.83;;;12.17;;
3779;SDS011;1905;52.482;9.802;2022-12-07T01:55:44;19.07;;;12.00;;
3779;SDS011;1905;52.482;9.802;2022-12-07T01:58:15;18.20;;;11.37;;
3779;SDS011;1905;52.482;9.802;2022-12-07T02:00:43;18.00;;;10.90;;
3779;SDS011;1905;52.482;9.802;2022-12-07T02:03:13;22.53;;;11.00;;
3779;SDS011;1905;52.482;9.802;2022-12-07T02:05:46;18.80;;;9.90;;
3779;SDS011;1905;52.482;9.802;2022-12-07T02:08:15;21.47;;;10.83;;
3779;SDS011;1905;52.482;9.802;2022-12-07T02:10:45;22.43;;;10.90;;
3779;SDS011;1905;52.482;9.802;2022-12-07T02:13:13;22.90;;;10.97;;
3779;SDS011;1905;52.482;9.802;2022-12-07T02:18:38;22.90;;;15.10;;
3779;SDS011;1905;52.482;9.802;2022-12-07T02:21:16;16.70;;;10.00;;
3779;SDS011;1905;52.482;9.802;2022-12-07T02:27:01;15.20;;;8.53;;
3779;SDS011;1905;52.482;9.802;2022-12-07T02:29:49;22.27;;;10.20;;
3779;SDS011;1905;52.482;9.802;2022-12-07T02:32:27;20.50;;;10.43;;
3779;SDS011;1905;52.482;9.802;2022-12-07T02:35:02;15.80;;;9.00;;
3779;SDS011;1905;52.482;9.802;2022-12-07T02:37:35;18.23;;;9.90;;
3779;SDS011;1905;52.482;9.802;2022-12-07T02:40:08;18.90;;;10.70;;
3779;SDS011;1905;52.482;9.802;2022-12-07T02:42:42;17.37;;;9.07;;
3779;SDS011;1905;52.482;9.802;2022-12-07T02:45:16;13.10;;;8.63;;
3779;SDS011;1905;52.482;9.802;2022-12-07T02:47:48;13.67;;;9.43;;
3779;SDS011;1905;52.482;9.802;2022-12-07T02:50:20;15.87;;;10.43;;
3779;SDS011;1905;52.482;9.802;2022-12-07T02:52:48;13.17;;;8.20;;
3779;SDS011;1905;52.482;9.802;2022-12-07T02:55:17;22.63;;;11.37;;
3779;SDS011;1905;52.482;9.802;2022-12-07T02:57:53;14.90;;;8.77;;
3779;SDS011;1905;52.482;9.802;2022-12-07T03:00:29;14.37;;;9.10;;
3779;SDS011;1905;52.482;9.802;2022-12-07T03:03:04;13.67;;;9.27;;
3779;SDS011;1905;52.482;9.802;2022-12-07T03:05:48;13.07;;;8.23;;
3779;SDS011;1905;52.482;9.802;2022-12-07T03:08:25;14.40;;;8.47;;
3779;SDS011;1905;52.482;9.802;2022-12-07T03:11:00;11.43;;;7.43;;
3779;SDS011;1905;52.482;9.802;2022-12-07T03:13:34;14.40;;;8.50;;
3779;SDS011;1905;52.482;9.802;2022-12-07T03:16:10;15.60;;;8.00;;
3779;SDS011;1905;52.482;9.802;2022-12-07T03:18:44;13.33;;;8.77;;
3779;SDS011;1905;52.482;9.802;2022-12-07T03:21:15;13.50;;;7.07;;
3779;SDS011;1905;52.482;9.802;2022-12-07T03:23:46;12.43;;;7.40;;
3779;SDS011;1905;52.482;9.802;2022-12-07T03:26:18;12.67;;;6.70;;
3779;SDS011;1905;52.482;9.802;2022-12-07T03:28:50;12.40;;;7.83;;
3779;SDS011;1905;52.482;9.802;2022-12-07T03:31:24;15.03;;;7.13;;
3779;SDS011;1905;52.482;9.802;2022-12-07T03:33:57;10.10;;;7.40;;
3779;SDS011;1905;52.482;9.802;2022-12-07T03:36:29;9.53;;;6.60;;
3779;SDS011;1905;52.482;9.802;2022-12-07T03:39:03;19.27;;;7.73;;
3779;SDS011;1905;52.482;9.802;2022-12-07T03:41:36;11.17;;;7.67;;
3779;SDS011;1905;52.482;9.802;2022-12-07T03:44:10;13.57;;;7.13;;
3779;SDS011;1905;52.482;9.802;2022-12-07T03:46:42;13.37;;;7.50;;
3779;SDS011;1905;52.482;9.802;2022-12-07T03:49:12;10.90;;;5.50;;
3779;SDS011;1905;52.482;9.802;2022-12-07T03:51:50;9.87;;;6.90;;
3779;SDS011;1905;52.482;9.802;2022-12-07T03:54:24;13.00;;;8.07;;
3779;SDS011;1905;52.482;9.802;2022-12-07T03:56:56;12.77;;;7.50;;
3779;SDS011;1905;52.482;9.802;2022-12-07T03:59:26;13.67;;;6.40;;
3779;SDS011;1905;52.482;9.802;2022-12-07T04:01:56;17.80;;;7.50;;
3779;SDS011;1905;52.482;9.802;2022-12-07T04:04:28;13.83;;;7.17;;
3779;SDS011;1905;52.482;9.802;2022-12-07T04:06:56;11.57;;;7.23;;
3779;SDS011;1905;52.482;9.802;2022-12-07T04:09:24;14.63;;;7.00;;
3779;SDS011;1905;52.482;9.802;2022-12-07T04:11:52;10.70;;;6.50;;
3779;SDS011;1905;52.482;9.802;2022-12-07T04:14:19;9.13;;;5.90;;
3779;SDS011;1905;52.482;9.802;2022-12-07T04:16:48;8.90;;;6.13;;
3779;SDS011;1905;52.482;9.802;2022-12-07T04:19:19;9.73;;;6.07;;
3779;SDS011;1905;52.482;9.802;2022-12-07T04:21:48;13.90;;;6.63;;
3779;SDS011;1905;52.482;9.802;2022-12-07T04:24:15;10.53;;;6.23;;
3779;SDS011;1905;52.482;9.802;2022-12-07T04:26:43;12.20;;;5.90;;
3779;SDS011;1905;52.482;9.802;2022-12-07T04:29:12;13.53;;;7.00;;
3779;SDS011;1905;52.482;9.802;2022-12-07T04:31:40;9.73;;;5.40;;
3779;SDS011;1905;52.482;9.802;2022-12-07T04:34:09;7.90;;;5.57;;
3779;SDS011;1905;52.482;9.802;2022-12-07T04:36:39;11.00;;;5.50;;
3779;SDS011;1905;52.482;9.802;2022-12-07T04:39:07;10.37;;;6.40;;
3779;SDS011;1905;52.482;9.802;2022-12-07T04:41:36;13.70;;;5.40;;
3779;SDS011;1905;52.482;9.802;2022-12-07T04:44:03;13.50;;;6.50;;
3779;SDS011;1905;52.482;9.802;2022-12-07T04:46:33;15.13;;;8.63;;
3779;SDS011;1905;52.482;9.802;2022-12-07T04:49:01;9.00;;;5.47;;
3779;SDS011;1905;52.482;9.802;2022-12-07T04:51:28;12.10;;;6.43;;
3779;SDS011;1905;52.482;9.802;2022-12-07T04:53:58;10.10;;;5.27;;
3779;SDS011;1905;52.482;9.802;2022-12-07T04:56:26;8.90;;;5.87;;
3779;SDS011;1905;52.482;9.802;2022-12-07T04:58:54;10.70;;;6.53;;
3779;SDS011;1905;52.482;9.802;2022-12-07T05:01:24;9.50;;;5.50;;
3779;SDS011;1905;52.482;9.802;2022-12-07T05:03:51;7.13;;;5.27;;
3779;SDS011;1905;52.482;9.802;2022-12-07T05:06:19;9.33;;;4.90;;
3779;SDS011;1905;52.482;9.802;2022-12-07T05:08:47;7.53;;;5.53;;
3779;SDS011;1905;52.482;9.802;2022-12-07T05:11:16;11.13;;;6.17;;
3779;SDS011;1905;52.482;9.802;2022-12-07T05:13:58;6.63;;;4.53;;
3779;SDS011;1905;52.482;9.802;2022-12-07T05:16:26;14.27;;;5.70;;
3779;SDS011;1905;52.482;9.802;2022-12-07T05:18:54;11.50;;;5.87;;
3779;SDS011;1905;52.482;9.802;2022-12-07T05:21:22;7.87;;;5.87;;
3779;SDS011;1905;52.482;9.802;2022-12-07T05:23:50;8.13;;;5.50;;
3779;SDS011;1905;52.482;9.802;2022-12-07T05:26:19;13.43;;;6.00;;
3779;SDS011;1905;52.482;9.802;2022-12-07T05:28:49;11.10;;;5.20;;
3779;SDS011;1905;52.482;9.802;2022-12-07T05:31:18;8.00;;;5.30;;
3779;SDS011;1905;52.482;9.802;2022-12-07T05:33:46;12.50;;;6.70;;
3779;SDS011;1905;52.482;9.802;2022-12-07T05:36:14;6.10;;;5.20;;
3779;SDS011;1905;52.482;9.802;2022-12-07T05:38:42;8.20;;;4.70;;
3779;SDS011;1905;52.482;9.802;2022-12-07T05:41:11;10.10;;;5.37;;
3779;SDS011;1905;52.482;9.802;2022-12-07T05:43:56;5.73;;;4.33;;
3779;SDS011;1905;52.482;9.802;2022-12-07T05:46:24;11.73;;;4.13;;
3779;SDS011;1905;52.482;9.802;2022-12-07T05:48:52;7.87;;;4.90;;
3779;SDS011;1905;52.482;9.802;2022-12-07T05:51:19;7.83;;;4.23;;
3779;SDS011;1905;52.482;9.802;2022-12-07T05:53:47;9.13;;;4.37;;
3779;SDS011;1905;52.482;9.802;2022-12-07T05:56:15;8.30;;;4.13;;
3779;SDS011;1905;52.482;9.802;2022-12-07T05:58:43;8.17;;;5.07;;
3779;SDS011;1905;52.482;9.802;2022-12-07T06:01:30;6.03;;;4.20;;
3779;SDS011;1905;52.482;9.802;2022-12-07T06:03:57;6.80;;;4.30;;
3779;SDS011;1905;52.482;9.802;2022-12-07T06:06:25;7.73;;;4.43;;
3779;SDS011;1905;52.482;9.802;2022-12-07T06:08:53;10.80;;;4.53;;
3779;SDS011;1905;52.482;9.802;2022-12-07T06:11:21;9.17;;;4.07;;
3779;SDS011;1905;52.482;9.802;2022-12-07T06:14:06;4.30;;;3.67;;
3779;SDS011;1905;52.482;9.802;2022-12-07T06:16:35;8.00;;;3.67;;
3779;SDS011;1905;52.482;9.802;2022-12-07T06:19:03;6.20;;;3.83;;
3779;SDS011;1905;52.482;9.802;2022-12-07T06:21:30;8.50;;;4.20;;
3779;SDS011;1905;52.482;9.802;2022-12-07T06:23:58;6.77;;;4.47;;
3779;SDS011;1905;52.482;9.802;2022-12-07T06:26:26;8.70;;;4.23;;
3779;SDS011;1905;52.482;9.802;2022-12-07T06:28:53;8.27;;;3.83;;
3779;SDS011;1905;52.482;9.802;2022-12-07T06:31:21;6.53;;;3.93;;
3779;SDS011;1905;52.482;9.802;2022-12-07T06:33:50;8.43;;;3.90;;
3779;SDS011;1905;52.482;9.802;2022-12-07T06:36:18;6.27;;;3.83;;
3779;SDS011;1905;52.482;9.802;2022-12-07T06:38:52;8.97;;;4.67;;
3779;SDS011;1905;52.482;9.802;2022-12-07T06:41:21;5.43;;;3.40;;
3779;SDS011;1905;52.482;9.802;2022-12-07T06:43:49;5.80;;;3.67;;
3779;SDS011;1905;52.482;9.802;2022-12-07T06:46:21;5.17;;;3.73;;
3779;SDS011;1905;52.482;9.802;2022-12-07T06:48:51;5.00;;;3.80;;
3779;SDS011;1905;52.482;9.802;2022-12-07T06:51:19;7.50;;;4.07;;
3779;SDS011;1905;52.482;9.802;2022-12-07T06:53:46;9.57;;;4.50;;
3779;SDS011;1905;52.482;9.802;2022-12-07T06:56:14;5.30;;;4.40;;
3779;SDS011;1905;52.482;9.802;2022-12-07T06:58:42;6.30;;;3.63;;
3779;SDS011;1905;52.482;9.802;2022-12-07T07:01:11;5.70;;;3.47;;
3779;SDS011;1905;52.482;9.802;2022-12-07T07:03:40;8.67;;;3.77;;
3779;SDS011;1905;52.482;9.802;2022-12-07T07:06:09;6.70;;;3.67;;
3779;SDS011;1905;52.482;9.802;2022-12-07T07:08:37;4.50;;;3.00;;
3779;SDS011;1905;52.482;9.802;2022-12-07T07:11:06;4.57;;;2.80;;
3779;SDS011;1905;52.482;9.802;2022-12-07T07:13:35;3.60;;;3.07;;
3779;SDS011;1905;52.482;9.802;2022-12-07T07:16:03;5.77;;;3.00;;
3779;SDS011;1905;52.482;9.802;2022-12-07T07:18:31;2.50;;;2.10;;
3779;SDS011;1905;52.482;9.802;2022-12-07T07:20:59;4.80;;;3.30;;
3779;SDS011;1905;52.482;9.802;2022-12-07T07:23:28;4.50;;;3.10;;
3779;SDS011;1905;52.482;9.802;2022-12-07T07:25:56;5.10;;;3.27;;
3779;SDS011;1905;52.482;9.802;2022-12-07T07:28:24;4.90;;;3.17;;
3779;SDS011;1905;52.482;9.802;2022-12-07T07:30:52;6.43;;;3.10;;
3779;SDS011;1905;52.482;9.802;2022-12-07T07:33:20;4.30;;;3.43;;
3779;SDS011;1905;52.482;9.802;2022-12-07T07:35:48;3.13;;;2.00;;
3779;SDS011;1905;52.482;9.802;2022-12-07T07:38:15;8.10;;;3.40;;
3779;SDS011;1905;52.482;9.802;2022-12-07T07:40:44;4.57;;;2.83;;
3779;SDS011;1905;52.482;9.802;2022-12-07T07:43:12;4.90;;;2.40;;
3779;SDS011;1905;52.482;9.802;2022-12-07T07:45:40;3.50;;;2.50;;
3779;SDS011;1905;52.482;9.802;2022-12-07T07:48:08;3.80;;;2.73;;
3779;SDS011;1905;52.482;9.802;2022-12-07T07:50:35;4.47;;;2.60;;
3779;SDS011;1905;52.482;9.802;2022-12-07T07:53:03;5.33;;;3.30;;
3779;SDS011;1905;52.482;9.802;2022-12-07T07:55:31;4.67;;;2.37;;
3779;SDS011;1905;52.482;9.802;2022-12-07T07:58:00;2.30;;;2.10;;
3779;SDS011;1905;52.482;9.802;2022-12-07T08:00:28;6.77;;;2.40;;
3779;SDS011;1905;52.482;9.802;2022-12-07T08:02:55;5.53;;;3.47;;
3779;SDS011;1905;52.482;9.802;2022-12-07T08:05:23;4.03;;;2.10;;
3779;SDS011;1905;52.482;9.802;2022-12-07T08:07:51;4.53;;;2.53;;
3779;SDS011;1905;52.482;9.802;2022-12-07T08:10:19;4.70;;;2.33;;
3779;SDS011;1905;52.482;9.802;2022-12-07T08:12:46;4.80;;;2.23;;
3779;SDS011;1905;52.482;9.802;2022-12-07T08:15:30;4.10;;;1.83;;
3779;SDS011;1905;52.482;9.802;2022-12-07T08:17:58;8.20;;;2.47;;
3779;SDS011;1905;52.482;9.802;2022-12-07T08:20:26;4.30;;;2.33;;
3779;SDS011;1905;52.482;9.802;2022-12-07T08:22:54;2.90;;;2.27;;
3779;SDS011;1905;52.482;9.802;2022-12-07T08:25:21;6.13;;;2.03;;
3779;SDS011;1905;52.482;9.802;2022-12-07T08:27:49;1.70;;;1.60;;
3779;SDS011;1905;52.482;9.802;2022-12-07T08:30:19;4.23;;;2.20;;
3779;SDS011;1905;52.482;9.802;2022-12-07T08:49:35;2.63;;;1.70;;
3779;SDS011;1905;52.482;9.802;2022-12-07T08:52:05;2.00;;;1.90;;
3779;SDS011;1905;52.482;9.802;2022-12-07T08:54:33;2.90;;;2.57;;
3779;SDS011;1905;52.482;9.802;2022-12-07T08:57:03;2.90;;;2.07;;
3779;SDS011;1905;52.482;9.802;2022-12-07T08:59:38;4.50;;;1.90;;
3779;SDS011;1905;52.482;9.802;2022-12-07T09:02:18;8.03;;;2.97;;
3779;SDS011;1905;52.482;9.802;2022-12-07T09:04:47;5.07;;;2.20;;
3779;SDS011;1905;52.482;9.802;2022-12-07T09:07:14;3.57;;;2.30;;
3779;SDS011;1905;52.482;9.802;2022-12-07T09:09:42;2.50;;;2.00;;
3779;SDS011;1905;52.482;9.802;2022-12-07T09:12:10;3.43;;;1.70;;
3779;SDS011;1905;52.482;9.802;2022-12-07T09:14:37;3.60;;;2.73;;
3779;SDS011;1905;52.482;9.802;2022-12-07T09:17:06;2.67;;;2.47;;
3779;SDS011;1905;52.482;9.802;2022-12-07T09:19:34;2.90;;;2.10;;
3779;SDS011;1905;52.482;9.802;2022-12-07T09:22:04;2.80;;;2.43;;
3779;SDS011;1905;52.482;9.802;2022-12-07T09:24:32;2.23;;;1.87;;
3779;SDS011;1905;52.482;9.802;2022-12-07T09:27:02;1.60;;;1.47;;
3779;SDS011;1905;52.482;9.802;2022-12-07T09:29:32;4.60;;;1.67;;
3779;SDS011;1905;52.482;9.802;2022-12-07T09:32:03;2.20;;;1.73;;
3779;SDS011;1905;52.482;9.802;2022-12-07T09:34:37;2.63;;;1.40;;
3779;SDS011;1905;52.482;9.802;2022-12-07T09:37:06;4.03;;;1.90;;
3779;SDS011;1905;52.482;9.802;2022-12-07T09:39:38;1.80;;;1.70;;
3779;SDS011;1905;52.482;9.802;2022-12-07T09:42:18;1.90;;;1.80;;
3779;SDS011;1905;52.482;9.802;2022-12-07T09:44:55;11.63;;;1.77;;
3779;SDS011;1905;52.482;9.802;2022-12-07T09:47:24;5.03;;;1.83;;
3779;SDS011;1905;52.482;9.802;2022-12-07T09:49:53;1.83;;;1.73;;
3779;SDS011;1905;52.482;9.802;2022-12-07T09:52:26;3.70;;;1.83;;
3779;SDS011;1905;52.482;9.802;2022-12-07T09:55:08;1.70;;;1.60;;
3779;SDS011;1905;52.482;9.802;2022-12-07T09:57:38;1.93;;;1.70;;
3779;SDS011;1905;52.482;9.802;2022-12-07T10:00:07;1.87;;;1.77;;
3779;SDS011;1905;52.482;9.802;2022-12-07T10:09:58;4.13;;;1.93;;
3779;SDS011;1905;52.482;9.802;2022-12-07T10:12:26;14.50;;;1.80;;
3779;SDS011;1905;52.482;9.802;2022-12-07T10:14:55;2.20;;;1.93;;
3779;SDS011;1905;52.482;9.802;2022-12-07T10:17:36;1.40;;;1.30;;
3779;SDS011;1905;52.482;9.802;2022-12-07T10:20:16;1.47;;;1.37;;
3779;SDS011;1905;52.482;9.802;2022-12-07T10:22:56;2.33;;;1.53;;
3779;SDS011;1905;52.482;9.802;2022-12-07T10:25:27;1.30;;;1.20;;
3779;SDS011;1905;52.482;9.802;2022-12-07T10:28:08;1.40;;;1.20;;
3779;SDS011;1905;52.482;9.802;2022-12-07T10:30:54;1.50;;;1.40;;
3779;SDS011;1905;52.482;9.802;2022-12-07T10:38:44;1.63;;;1.50;;
3779;SDS011;1905;52.482;9.802;2022-12-07T10:41:14;4.23;;;1.73;;
3779;SDS011;1905;52.482;9.802;2022-12-07T10:43:49;1.50;;;1.40;;
3779;SDS011;1905;52.482;9.802;2022-12-07T10:46:22;1.27;;;1.17;;
3779;SDS011;1905;52.482;9.802;2022-12-07T10:49:29;2.23;;;1.70;;
3779;SDS011;1905;52.482;9.802;2022-12-07T10:52:26;1.13;;;1.13;;
3779;SDS011;1905;52.482;9.802;2022-12-07T10:55:08;1.20;;;1.10;;
3779;SDS011;1905;52.482;9.802;2022-12-07T10:57:51;2.23;;;1.40;;
3779;SDS011;1905;52.482;9.802;2022-12-07T11:00:33;3.10;;;1.40;;
3779;SDS011;1905;52.482;9.802;2022-12-07T11:03:14;4.00;;;1.53;;
3779;SDS011;1905;52.482;9.802;2022-12-07T11:05:55;2.50;;;1.20;;
3779;SDS011;1905;52.482;9.802;2022-12-07T11:08:31;3.80;;;2.47;;
3779;SDS011;1905;52.482;9.802;2022-12-07T11:11:09;1.20;;;1.10;;
3779;SDS011;1905;52.482;9.802;2022-12-07T11:13:44;4.13;;;1.50;;
3779;SDS011;1905;52.482;9.802;2022-12-07T11:16:21;1.00;;;1.00;;
3779;SDS011;1905;52.482;9.802;2022-12-07T11:18:59;3.90;;;1.60;;
3779;SDS011;1905;52.482;9.802;2022-12-07T11:21:36;1.83;;;1.33;;
3779;SDS011;1905;52.482;9.802;2022-12-07T11:24:14;3.90;;;1.20;;
3779;SDS011;1905;52.482;9.802;2022-12-07T11:26:50;1.37;;;1.27;;
3779;SDS011;1905;52.482;9.802;2022-12-07T11:29:40;1.50;;;1.40;;
3779;SDS011;1905;52.482;9.802;2022-12-07T11:32:17;1.40;;;1.30;;
3779;SDS011;1905;52.482;9.802;2022-12-07T11:34:52;1.63;;;1.20;;
3779;SDS011;1905;52.482;9.802;2022-12-07T11:37:31;4.13;;;1.70;;
3779;SDS011;1905;52.482;9.802;2022-12-07T11:40:05;1.20;;;1.10;;
3779;SDS011;1905;52.482;9.802;2022-12-07T11:42:44;1.13;;;1.13;;
3779;SDS011;1905;52.482;9.802;2022-12-07T11:45:19;1.20;;;1.10;;
3779;SDS011;1905;52.482;9.802;2022-12-07T11:47:51;0.80;;;0.80;;
3779;SDS011;1905;52.482;9.802;2022-12-07T11:50:25;1.20;;;1.10;;
3779;SDS011;1905;52.482;9.802;2022-12-07T11:52:55;1.23;;;1.13;;
3779;SDS011;1905;52.482;9.802;2022-12-07T11:55:27;2.97;;;1.47;;
3779;SDS011;1905;52.482;9.802;2022-12-07T11:58:03;1.30;;;1.20;;
3779;SDS011;1905;52.482;9.802;2022-12-07T12:00:41;2.17;;;2.03;;
3779;SDS011;1905;52.482;9.802;2022-12-07T12:03:10;1.57;;;1.47;;
3779;SDS011;1905;52.482;9.802;2022-12-07T12:05:42;1.73;;;1.30;;
3779;SDS011;1905;52.482;9.802;2022-12-07T12:08:12;1.17;;;1.07;;
3779;SDS011;1905;52.482;9.802;2022-12-07T12:11:05;6.80;;;1.80;;
3779;SDS011;1905;52.482;9.802;2022-12-07T12:13:51;1.47;;;1.37;;
3779;SDS011;1905;52.482;9.802;2022-12-07T12:17:12;2.23;;;2.00;;
3779;SDS011;1905;52.482;9.802;2022-12-07T12:20:00;8.80;;;1.60;;
3779;SDS011;1905;52.482;9.802;2022-12-07T12:22:33;2.40;;;1.73;;
3779;SDS011;1905;52.482;9.802;2022-12-07T12:25:04;2.30;;;1.47;;
3779;SDS011;1905;52.482;9.802;2022-12-07T12:27:35;2.80;;;1.70;;
3779;SDS011;1905;52.482;9.802;2022-12-07T12:30:06;4.47;;;2.00;;
3779;SDS011;1905;52.482;9.802;2022-12-07T12:32:53;3.63;;;2.33;;
3779;SDS011;1905;52.482;9.802;2022-12-07T12:35:31;3.00;;;1.80;;
3779;SDS011;1905;52.482;9.802;2022-12-07T12:41:00;4.73;;;2.00;;
3779;SDS011;1905;52.482;9.802;2022-12-07T12:58:33;4.60;;;2.07;;
3779;SDS011;1905;52.482;9.802;2022-12-07T13:04:16;3.00;;;2.33;;
3779;SDS011;1905;52.482;9.802;2022-12-07T13:06:52;4.77;;;2.27;;
3779;SDS011;1905;52.482;9.802;2022-12-07T13:09:22;3.43;;;1.70;;
3779;SDS011;1905;52.482;9.802;2022-12-07T13:11:56;2.17;;;1.97;;
3779;SDS011;1905;52.482;9.802;2022-12-07T13:14:41;6.47;;;1.77;;
3779;SDS011;1905;52.482;9.802;2022-12-07T13:20:48;3.87;;;2.57;;
3779;SDS011;1905;52.482;9.802;2022-12-07T13:23:29;4.67;;;2.40;;
3779;SDS011;1905;52.482;9.802;2022-12-07T13:28:45;5.43;;;1.60;;
3779;SDS011;1905;52.482;9.802;2022-12-07T13:31:31;2.47;;;1.70;;
3779;SDS011;1905;52.482;9.802;2022-12-07T13:34:01;6.20;;;2.30;;
3779;SDS011;1905;52.482;9.802;2022-12-07T13:36:30;1.70;;;1.43;;
3779;SDS011;1905;52.482;9.802;2022-12-07T13:39:15;4.00;;;2.00;;
3779;SDS011;1905;52.482;9.802;2022-12-07T13:41:50;2.03;;;1.87;;
3779;SDS011;1905;52.482;9.802;2022-12-07T13:44:19;3.83;;;2.67;;
3779;SDS011;1905;52.482;9.802;2022-12-07T13:46:49;2.33;;;2.17;;
3779;SDS011;1905;52.482;9.802;2022-12-07T13:49:21;5.40;;;1.80;;
3779;SDS011;1905;52.482;9.802;2022-12-07T13:51:51;2.70;;;2.03;;
3779;SDS011;1905;52.482;9.802;2022-12-07T13:54:19;2.00;;;1.90;;
3779;SDS011;1905;52.482;9.802;2022-12-07T13:56:50;4.07;;;2.00;;
3779;SDS011;1905;52.482;9.802;2022-12-07T13:59:19;3.07;;;1.80;;
3779;SDS011;1905;52.482;9.802;2022-12-07T14:01:49;1.73;;;1.60;;
3779;SDS011;1905;52.482;9.802;2022-12-07T14:07:15;2.90;;;2.20;;
3779;SDS011;1905;52.482;9.802;2022-12-07T14:09:53;2.37;;;1.60;;
3779;SDS011;1905;52.482;9.802;2022-12-07T14:12:24;3.63;;;2.13;;
3779;SDS011;1905;52.482;9.802;2022-12-07T14:14:53;4.43;;;1.87;;
3779;SDS011;1905;52.482;9.802;2022-12-07T14:17:23;2.90;;;1.87;;
3779;SDS011;1905;52.482;9.802;2022-12-07T14:19:52;2.83;;;1.60;;
3779;SDS011;1905;52.482;9.802;2022-12-07T14:22:25;2.90;;;2.00;;
3779;SDS011;1905;52.482;9.802;2022-12-07T14:24:58;2.80;;;2.07;;
3779;SDS011;1905;52.482;9.802;2022-12-07T14:27:32;5.57;;;2.20;;
3779;SDS011;1905;52.482;9.802;2022-12-07T14:30:02;4.00;;;2.00;;
3779;SDS011;1905;52.482;9.802;2022-12-07T14:32:31;3.33;;;2.80;;
3779;SDS011;1905;52.482;9.802;2022-12-07T14:35:07;4.73;;;2.40;;
3779;SDS011;1905;52.482;9.802;2022-12-07T14:37:37;9.07;;;3.57;;
3779;SDS011;1905;52.482;9.802;2022-12-07T14:40:07;5.07;;;2.80;;
3779;SDS011;1905;52.482;9.802;2022-12-07T14:42:40;7.80;;;2.93;;
3779;SDS011;1905;52.482;9.802;2022-12-07T14:45:12;3.00;;;2.23;;
3779;SDS011;1905;52.482;9.802;2022-12-07T14:47:41;2.57;;;1.50;;
3779;SDS011;1905;52.482;9.802;2022-12-07T14:50:30;4.30;;;1.83;;
3779;SDS011;1905;52.482;9.802;2022-12-07T14:53:03;1.70;;;1.60;;
3779;SDS011;1905;52.482;9.802;2022-12-07T14:55:53;5.47;;;1.83;;
3779;SDS011;1905;52.482;9.802;2022-12-07T14:58:22;4.23;;;1.43;;
3779;SDS011;1905;52.482;9.802;2022-12-07T15:00:49;3.20;;;2.03;;
3779;SDS011;1905;52.482;9.802;2022-12-07T15:03:17;4.37;;;1.80;;
3779;SDS011;1905;52.482;9.802;2022-12-07T15:05:45;1.60;;;1.50;;
3779;SDS011;1905;52.482;9.802;2022-12-07T15:08:12;4.30;;;2.33;;
3779;SDS011;1905;52.482;9.802;2022-12-07T15:10:40;3.60;;;1.90;;
3779;SDS011;1905;52.482;9.802;2022-12-07T15:13:08;4.17;;;1.30;;
3779;SDS011;1905;52.482;9.802;2022-12-07T15:15:55;3.80;;;1.40;;
3779;SDS011;1905;52.482;9.802;2022-12-07T15:18:23;1.43;;;1.17;;
3779;SDS011;1905;52.482;9.802;2022-12-07T15:20:51;1.53;;;0.93;;
3779;SDS011;1905;52.482;9.802;2022-12-07T15:23:19;2.90;;;1.23;;
3779;SDS011;1905;52.482;9.802;2022-12-07T15:25:47;1.97;;;1.77;;
3779;SDS011;1905;52.482;9.802;2022-12-07T15:28:16;1.53;;;1.43;;
3779;SDS011;1905;52.482;9.802;2022-12-07T15:30:44;0.97;;;0.90;;
3779;SDS011;1905;52.482;9.802;2022-12-07T15:33:13;3.33;;;1.10;;
3779;SDS011;1905;52.482;9.802;2022-12-07T15:35:41;3.23;;;0.93;;
3779;SDS011;1905;52.482;9.802;2022-12-07T15:38:10;1.07;;;0.97;;
3779;SDS011;1905;52.482;9.802;2022-12-07T15:40:38;2.83;;;1.00;;
3779;SDS011;1905;52.482;9.802;2022-12-07T15:43:07;1.63;;;1.07;;
3779;SDS011;1905;52.482;9.802;2022-12-07T15:45:55;2.77;;;1.90;;
3779;SDS011;1905;52.482;9.802;2022-12-07T15:48:23;3.63;;;1.10;;
3779;SDS011;1905;52.482;9.802;2022-12-07T15:51:00;3.53;;;1.40;;
3779;SDS011;1905;52.482;9.802;2022-12-07T15:53:30;2.23;;;1.10;;
3779;SDS011;1905;52.482;9.802;2022-12-07T15:55:58;3.53;;;0.93;;
3779;SDS011;1905;52.482;9.802;2022-12-07T15:58:26;1.57;;;1.47;;
3779;SDS011;1905;52.482;9.802;2022-12-07T16:00:53;4.90;;;2.30;;
3779;SDS011;1905;52.482;9.802;2022-12-07T16:03:21;7.97;;;3.60;;
3779;SDS011;1905;52.482;9.802;2022-12-07T16:05:50;2.03;;;1.20;;
3779;SDS011;1905;52.482;9.802;2022-12-07T16:08:19;4.93;;;1.40;;
3779;SDS011;1905;52.482;9.802;2022-12-07T16:10:47;1.63;;;1.20;;
3779;SDS011;1905;52.482;9.802;2022-12-07T16:13:14;2.30;;;1.10;;
3779;SDS011;1905;52.482;9.802;2022-12-07T16:15:42;4.10;;;0.90;;
3779;SDS011;1905;52.482;9.802;2022-12-07T16:18:10;1.10;;;1.10;;
3779;SDS011;1905;52.482;9.802;2022-12-07T16:20:38;1.43;;;1.10;;
3779;SDS011;1905;52.482;9.802;2022-12-07T16:23:07;1.20;;;1.10;;
3779;SDS011;1905;52.482;9.802;2022-12-07T16:25:34;3.53;;;1.80;;
3779;SDS011;1905;52.482;9.802;2022-12-07T16:28:02;1.97;;;1.87;;
3779;SDS011;1905;52.482;9.802;2022-12-07T16:30:30;2.93;;;2.73;;
3779;SDS011;1905;52.482;9.802;2022-12-07T16:32:57;6.03;;;2.23;;
3779;SDS011;1905;52.482;9.802;2022-12-07T16:35:28;2.93;;;2.40;;
3779;SDS011;1905;52.482;9.802;2022-12-07T16:37:55;2.27;;;1.60;;
3779;SDS011;1905;52.482;9.802;2022-12-07T16:40:24;1.33;;;1.23;;
3779;SDS011;1905;52.482;9.802;2022-12-07T16:42:52;1.50;;;1.40;;
3779;SDS011;1905;52.482;9.802;2022-12-07T16:45:20;1.40;;;1.30;;
3779;SDS011;1905;52.482;9.802;2022-12-07T16:47:47;1.03;;;1.00;;
3779;SDS011;1905;52.482;9.802;2022-12-07T16:50:15;3.53;;;1.20;;